Time;durP1;ratioP1;P1;durP2;ratioP2;P2;SDS_P1;SDS_P2;PMS_P1;PMS_P2;Temp;Humidity;BMP_temperature;BMP_pressure;BME280_temperature;BME280_humidity;BME280_pressure;Samples;Min_cycle;Max_cycle;Signal;HPM_P1;HPM_P2
2022/09/13 00:00:51;;;;;;;2.05;1.95;;;;;;;19.54;64.25;96690.50;10537852;28;20071;-51
2022/09/13 00:06:16;;;;;;;2.38;2.17;;;;;;;19.54;64.22;96687.81;10536830;28;20563;-51
2022/09/13 00:11:35;;;;;;;2.05;1.77;;;;;;;19.53;64.29;96682.72;10539253;28;20059;-50
2022/09/13 00:16:55;;;;;;;2.10;1.90;;;;;;;19.53;64.23;96675.41;10545495;28;20062;-50
2022/09/13 00:22:14;;;;;;;2.03;1.83;;;;;;;19.54;64.31;96674.28;10545171;28;20047;-51
2022/09/13 00:27:35;;;;;;;1.77;1.67;;;;;;;19.53;64.32;96667.28;10561409;28;20481;-51
2022/09/13 00:32:55;;;;;;;2.08;1.98;;;;;;;19.52;64.30;96657.63;10555150;28;20059;-51
2022/09/13 00:38:14;;;;;;;2.00;1.90;;;;;;;19.52;64.21;96657.63;10542490;28;20506;-51
2022/09/13 00:43:57;;;;;;;2.05;1.85;;;;;;;19.53;64.25;96647.59;10579428;28;20056;-51
2022/09/13 00:49:21;;;;;;;1.83;1.73;;;;;;;19.53;64.29;96647.59;10565251;28;20055;-51
2022/09/13 00:54:44;;;;;;;2.33;1.80;;;;;;;19.53;64.24;96636.78;10546227;28;20124;-49
2022/09/13 01:00:12;;;;;;;2.17;2.00;;;;;;;19.52;64.31;96624.38;10531744;28;20059;-50
2022/09/13 01:05:36;;;;;;;2.35;2.00;;;;;;;19.51;64.17;96629.00;10550628;28;21098;-51
2022/09/13 01:10:58;;;;;;;2.03;1.83;;;;;;;19.51;64.20;96623.59;10566128;28;20055;-52
2022/09/13 01:16:18;;;;;;;2.03;1.83;;;;;;;19.51;64.21;96618.19;10535347;28;20517;-51
2022/09/13 01:22:05;;;;;;;1.63;1.52;;;;;;;19.50;64.18;96605.81;10559626;28;20052;-50
2022/09/13 01:27:58;;;;;;;2.28;1.75;;;;;;;19.50;64.20;96602.31;10553018;28;20052;-50
2022/09/13 01:33:38;;;;;;;1.80;1.70;;;;;;;19.51;64.23;96609.31;10572725;28;20061;-51
2022/09/13 01:39:16;;;;;;;1.92;1.83;;;;;;;19.51;64.21;96622.81;10565335;28;20058;-52
2022/09/13 01:45:21;;;;;;;3.60;1.97;;;;;;;19.50;64.18;96605.81;10534650;28;20052;-52
2022/09/13 01:50:56;;;;;;;1.63;1.52;;;;;;;19.49;64.10;96609.63;10438968;28;20071;-50
2022/09/13 01:56:22;;;;;;;1.75;1.65;;;;;;;19.50;64.13;96608.53;10546755;28;20055;-50
2022/09/13 02:01:49;;;;;;;1.98;1.88;;;;;;;19.49;64.23;96587.22;10564177;28;20100;-49
2022/09/13 02:07:13;;;;;;;1.63;1.52;;;;;;;19.49;64.20;96598.81;10540725;28;20060;-51
2022/09/13 02:12:35;;;;;;;1.75;1.65;;;;;;;19.49;64.13;96593.41;10547559;28;20556;-50
2022/09/13 02:18:05;;;;;;;1.90;1.80;;;;;;;19.49;64.10;96577.19;10579455;28;20063;-50
2022/09/13 02:23:30;;;;;;;2.08;1.90;;;;;;;19.47;64.12;96571.34;10564377;28;20052;-52
2022/09/13 02:28:54;;;;;;;1.63;1.52;;;;;;;19.49;64.10;96563.69;10572049;28;20088;-48
2022/09/13 02:34:37;;;;;;;1.77;1.67;;;;;;;19.49;64.13;96561.00;10524456;28;20495;-51
2022/09/13 02:40:04;;;;;;;1.70;1.60;;;;;;;19.47;64.04;96555.13;10553585;28;20518;-51
2022/09/13 02:45:30;;;;;;;1.70;1.60;;;;;;;19.48;64.13;96554.03;10561619;28;20052;-49
2022/09/13 02:51:08;;;;;;;1.60;1.50;;;;;;;19.47;64.04;96554.34;10541367;28;20455;-52
2022/09/13 02:57:03;;;;;;;1.63;1.48;;;;;;;19.46;64.10;96545.44;10565633;28;20047;-51
2022/09/13 03:02:26;;;;;;;1.58;1.48;;;;;;;19.46;64.12;96536.53;10569037;28;20048;-49
2022/09/13 03:07:47;;;;;;;1.80;1.70;;;;;;;19.45;64.05;96546.56;10541548;28;20084;-52
2022/09/13 03:13:50;;;;;;;1.52;1.42;;;;;;;19.47;64.05;96552.44;10543409;28;20052;-50
2022/09/13 03:19:27;;;;;;;1.98;1.77;;;;;;;19.45;64.06;96543.88;10455233;28;20052;-51
2022/09/13 03:25:01;;;;;;;1.67;1.58;;;;;;;19.45;64.09;96543.88;10572768;28;20036;-51
2022/09/13 03:30:21;;;;;;;1.80;1.70;;;;;;;19.45;64.12;96537.69;10541947;28;20067;-50
2022/09/13 03:35:51;;;;;;;2.10;1.60;;;;;;;19.46;64.12;96536.53;10569051;28;20442;-51
2022/09/13 03:41:18;;;;;;;1.55;1.45;;;;;;;19.45;64.04;96529.56;10540672;28;20059;-51
2022/09/13 03:46:40;;;;;;;1.67;1.58;;;;;;;19.44;63.90;96536.09;10539260;28;20483;-49
2022/09/13 03:52:00;;;;;;;1.70;1.60;;;;;;;19.44;64.03;96542.28;10552142;28;20051;-49
2022/09/13 03:57:21;;;;;;;1.30;1.20;;;;;;;19.44;63.99;96549.59;10544585;28;20067;-48
2022/09/13 04:02:40;;;;;;;1.38;1.27;;;;;;;19.44;63.93;96555.00;10549373;28;20097;-52
2022/09/13 04:08:00;;;;;;;1.58;1.48;;;;;;;19.43;63.96;96556.91;10543364;28;20063;-50
2022/09/13 04:13:21;;;;;;;1.58;1.48;;;;;;;19.43;63.86;96556.91;10571478;28;20101;-51
2022/09/13 04:18:40;;;;;;;1.65;1.50;;;;;;;19.43;64.09;96550.72;10573117;28;20040;-51
2022/09/13 04:24:00;;;;;;;1.50;1.40;;;;;;;19.43;63.92;96554.22;10551463;28;20073;-51
2022/09/13 04:29:21;;;;;;;1.73;1.63;;;;;;;19.41;63.91;96548.34;10553447;28;20530;-52
2022/09/13 04:34:41;;;;;;;1.70;1.60;;;;;;;19.41;63.92;96564.56;10549143;28;20060;-50
2022/09/13 04:40:00;;;;;;;1.45;1.35;;;;;;;19.42;63.86;96549.91;10561088;28;20507;-52
2022/09/13 04:45:19;;;;;;;1.60;1.50;;;;;;;19.41;63.98;96547.56;10582576;28;20071;-50
2022/09/13 04:50:39;;;;;;;1.65;1.55;;;;;;;19.41;63.98;96536.75;10589983;28;20142;-49
2022/09/13 04:56:05;;;;;;;1.80;1.70;;;;;;;19.42;63.95;96532.91;10575037;28;20043;-50
2022/09/13 05:01:24;;;;;;;2.97;1.50;;;;;;;19.42;64.07;96538.31;10565874;28;20117;-48
2022/09/13 05:06:43;;;;;;;2.40;1.70;;;;;;;19.42;64.19;96531.00;10543793;28;20043;-52
2022/09/13 05:12:03;;;;;;;1.40;1.30;;;;;;;19.42;64.28;96533.69;10571750;28;20078;-51
2022/09/13 05:17:22;;;;;;;1.50;1.40;;;;;;;19.41;64.28;96521.34;10571043;28;20054;-51
2022/09/13 05:22:42;;;;;;;1.38;1.27;;;;;;;19.41;64.09;96510.53;10594924;28;20511;-47
2022/09/13 05:28:01;;;;;;;2.45;1.92;;;;;;;19.42;63.68;96516.72;10569682;28;20549;-51
2022/09/13 05:33:21;;;;;;;2.60;1.55;;;;;;;19.39;63.84;96523.56;10595259;28;20047;-51
2022/09/13 05:38:41;;;;;;;2.20;1.60;;;;;;;19.40;64.00;96529.75;10550113;28;20056;-49
2022/09/13 05:44:01;;;;;;;1.60;1.50;;;;;;;19.40;64.10;96530.53;10528867;28;20063;-48
2022/09/13 05:49:21;;;;;;;3.25;1.70;;;;;;;19.40;64.19;96533.25;10564695;28;20121;-49
2022/09/13 05:54:40;;;;;;;3.13;1.55;;;;;;;19.42;64.19;96538.31;10549554;28;20101;-49
2022/09/13 05:59:59;;;;;;;2.50;1.52;;;;;;;19.39;64.24;96547.88;10541639;28;20056;-48
2022/09/13 06:05:19;;;;;;;1.98;1.50;;;;;;;19.41;64.20;96544.88;10541231;28;20128;-48
2022/09/13 06:10:38;;;;;;;2.90;2.10;;;;;;;19.40;64.27;96546.75;10548195;28;20442;-46
2022/09/13 06:15:59;;;;;;;6.85;2.70;;;;;;;19.40;63.96;96543.25;10540982;28;20048;-49
2022/09/13 06:21:20;;;;;;;5.53;2.70;;;;;;;19.38;63.27;96535.47;10531383;28;20052;-47
2022/09/13 06:26:40;;;;;;;7.65;3.20;;;;;;;19.36;62.74;96535.03;10565084;28;20040;-47
2022/09/13 06:31:59;;;;;;;7.28;3.55;;;;;;;19.34;62.87;96527.25;10540183;28;20460;-48
2022/09/13 06:37:18;;;;;;;10.27;4.05;;;;;;;19.33;62.34;96520.28;10525328;28;20445;-48
2022/09/13 06:42:38;;;;;;;8.75;4.00;;;;;;;19.31;62.02;96521.72;10559776;28;20060;-50
2022/09/13 06:47:58;;;;;;;6.25;3.70;;;;;;;19.31;61.90;96521.72;10525633;28;20055;-48
2022/09/13 06:53:19;;;;;;;7.32;3.63;;;;;;;19.29;61.99;96511.25;10538002;28;20052;-47
2022/09/13 06:58:40;;;;;;;7.90;3.38;;;;;;;19.29;61.98;96511.25;10539364;28;20047;-49
2022/09/13 07:04:05;;;;;;;8.05;4.00;;;;;;;19.29;61.68;96524.75;10552412;28;20044;-49
2022/09/13 07:09:25;;;;;;;6.22;3.25;;;;;;;19.29;61.60;96521.28;10539205;28;20056;-48
2022/09/13 07:14:44;;;;;;;8.48;3.85;;;;;;;19.28;61.39;96520.47;10538927;28;20051;-49
2022/09/13 07:20:06;;;;;;;9.10;4.38;;;;;;;19.27;61.36;96508.09;10537132;28;20052;-48
2022/09/13 07:25:25;;;;;;;5.95;3.47;;;;;;;19.27;61.30;96516.19;10531027;28;20059;-50
2022/09/13 07:30:44;;;;;;;7.85;4.10;;;;;;;19.28;61.61;96519.69;10537738;28;20419;-50
2022/09/13 07:36:05;;;;;;;7.70;3.80;;;;;;;19.28;61.33;96517.75;10535651;28;20109;-48
2022/09/13 07:41:26;;;;;;;5.32;3.50;;;;;;;19.27;60.94;96524.28;10564746;28;20078;-49
2022/09/13 07:46:45;;;;;;;4.85;3.40;;;;;;;19.26;60.74;96521.91;10573599;28;20058;-51
2022/09/13 07:52:04;;;;;;;8.98;3.75;;;;;;;19.25;61.00;96521.13;10559332;28;20052;-47
2022/09/13 07:57:24;;;;;;;4.88;3.95;;;;;;;19.25;61.01;96507.63;10568330;28;20050;-50
2022/09/13 08:02:43;;;;;;;5.07;3.75;;;;;;;19.26;60.89;96511.13;10538945;28;20487;-48
2022/09/13 08:08:02;;;;;;;5.55;3.75;;;;;;;19.25;61.02;96496.00;10573392;28;20052;-51
2022/09/13 08:13:22;;;;;;;4.43;3.33;;;;;;;19.26;61.16;96498.41;10568108;28;20066;-51
2022/09/13 08:18:50;;;;;;;3.53;3.17;;;;;;;19.25;61.29;96494.13;10562479;28;20058;-50
2022/09/13 08:24:18;;;;;;;3.50;3.10;;;;;;;19.26;61.48;96495.69;10566438;28;20123;-51
2022/09/13 08:29:37;;;;;;;3.97;3.37;;;;;;;19.27;61.69;96515.41;10573604;28;20054;-50
2022/09/13 08:34:57;;;;;;;3.17;2.83;;;;;;;19.25;61.70;96515.72;10581463;28;20059;-52
2022/09/13 08:40:16;;;;;;;3.30;2.97;;;;;;;19.26;61.87;96513.81;10559017;28;20060;-50
2022/09/13 08:45:36;;;;;;;3.70;3.17;;;;;;;19.27;61.54;96513.50;10543497;28;20454;-51
2022/09/13 08:50:58;;;;;;;3.13;2.85;;;;;;;19.27;61.96;96521.59;10531941;28;20052;-51
2022/09/13 08:56:55;;;;;;;4.00;3.25;;;;;;;19.25;61.94;96521.13;10529027;28;20044;-48
2022/09/13 09:02:53;;;;;;;4.33;3.27;;;;;;;19.26;61.93;96514.59;10442474;28;20063;-48
2022/09/13 09:08:27;;;;;;;3.15;2.83;;;;;;;19.27;61.97;96510.00;10543729;28;20357;-48
2022/09/13 09:13:57;;;;;;;3.55;3.05;;;;;;;19.27;62.05;96513.50;10546563;28;20105;-51
2022/09/13 09:19:26;;;;;;;4.40;2.72;;;;;;;19.28;61.96;96506.19;10533577;28;20472;-51
2022/09/13 09:24:48;;;;;;;3.17;2.88;;;;;;;19.28;61.90;96498.06;10540968;28;20059;-51
2022/09/13 09:30:13;;;;;;;3.10;2.80;;;;;;;19.28;61.97;96501.56;10527643;28;20048;-51
2022/09/13 09:35:45;;;;;;;4.32;2.88;;;;;;;19.28;62.04;96489.97;10526959;28;20044;-47
2022/09/13 09:41:10;;;;;;;3.75;2.78;;;;;;;19.29;62.10;96480.75;10571012;28;20055;-47
2022/09/13 09:46:33;;;;;;;3.80;3.03;;;;;;;19.29;61.97;96483.47;10556760;28;20065;-48
2022/09/13 09:51:55;;;;;;;3.60;3.00;;;;;;;19.30;62.17;96466.91;10562600;28;20499;-47
2022/09/13 09:57:17;;;;;;;3.60;3.30;;;;;;;19.29;62.17;96453.75;10582573;28;20069;-48
2022/09/13 10:02:42;;;;;;;3.60;3.30;;;;;;;19.29;62.38;96470.75;10551302;28;20414;-51
2022/09/13 10:08:04;;;;;;;3.67;3.38;;;;;;;19.30;62.30;96461.50;10546987;28;20044;-48
2022/09/13 10:13:24;;;;;;;3.85;3.55;;;;;;;19.29;62.24;96456.44;10579782;28;20052;-47
2022/09/13 10:18:43;;;;;;;5.53;3.80;;;;;;;19.30;62.15;96449.91;10559552;28;20437;-47
2022/09/13 10:24:17;;;;;;;4.30;3.90;;;;;;;19.28;62.14;96434.03;10567572;28;20518;-50
2022/09/13 10:29:37;;;;;;;4.00;3.70;;;;;;;19.28;62.00;96428.63;10556581;28;20048;-47
2022/09/13 10:35:06;;;;;;;3.83;3.47;;;;;;;19.30;61.93;96428.31;10563265;28;20047;-51
2022/09/13 10:40:32;;;;;;;3.90;3.50;;;;;;;19.30;61.89;96420.22;10562531;28;20108;-48
2022/09/13 10:45:52;;;;;;;3.70;3.40;;;;;;;19.31;61.97;96419.09;10549955;28;20051;-49
2022/09/13 10:51:26;;;;;;;4.07;3.47;;;;;;;19.31;61.94;96408.28;10562987;28;20063;-51
2022/09/13 10:56:47;;;;;;;4.75;3.20;;;;;;;19.31;61.71;96413.69;10558201;28;20048;-48
2022/09/13 11:02:22;;;;;;;3.60;3.30;;;;;;;19.32;61.71;96399.84;10578215;28;20509;-48
2022/09/13 11:08:06;;;;;;;3.65;3.35;;;;;;;19.31;61.83;96389.38;10565399;28;20048;-49
2022/09/13 11:13:36;;;;;;;3.75;3.42;;;;;;;19.30;61.80;96391.28;10539139;28;20040;-48
2022/09/13 11:19:29;;;;;;;4.00;3.08;;;;;;;19.31;61.79;96392.09;10560086;28;20495;-48
2022/09/13 11:24:48;;;;;;;3.25;2.95;;;;;;;19.31;61.79;96397.50;10553340;28;20499;-48
2022/09/13 11:30:11;;;;;;;3.72;3.42;;;;;;;19.31;61.94;96375.88;10560326;28;20051;-47
2022/09/13 11:35:40;;;;;;;4.30;3.42;;;;;;;19.31;62.03;96392.88;10545256;28;20052;-47
2022/09/13 11:41:34;;;;;;;4.53;3.50;;;;;;;19.32;61.93;96388.25;10559222;28;20507;-50
2022/09/13 11:47:03;;;;;;;3.53;3.22;;;;;;;19.32;62.22;96388.25;10534579;28;20048;-49
2022/09/13 11:52:45;;;;;;;3.78;3.47;;;;;;;19.34;62.33;96381.38;10554366;28;20044;-50
2022/09/13 11:58:10;;;;;;;3.58;3.22;;;;;;;19.33;62.24;96374.44;10547196;28;20446;-47
2022/09/13 12:03:39;;;;;;;3.33;3.13;;;;;;;19.32;62.37;96372.84;10536118;28;20048;-45
2022/09/13 12:09:01;;;;;;;;;;;;;;;19.34;62.46;96369.81;10557336;28;20395;-46
2022/09/13 12:14:22;;;;;;;3.33;3.03;;;;;;;19.33;62.39;96355.50;10574638;28;19927;-46
2022/09/13 12:19:45;;;;;;;3.50;3.20;;;;;;;19.34;62.50;96350.91;10556408;28;20064;-49
2022/09/13 12:25:17;;;;;;;3.90;3.60;;;;;;;19.34;62.52;96345.50;10506437;28;20074;-48
2022/09/13 12:31:10;;;;;;;3.40;3.13;;;;;;;19.34;62.55;96332.00;10545075;28;20048;-49
2022/09/13 12:36:32;;;;;;;3.85;3.47;;;;;;;19.36;62.55;96332.44;10523200;28;20048;-47
2022/09/13 12:42:22;;;;;;;3.65;3.35;;;;;;;19.35;62.55;96326.25;10560475;28;20047;-47
2022/09/13 12:48:00;;;;;;;3.33;3.03;;;;;;;19.36;62.49;96327.03;10569779;28;20044;-48
2022/09/13 12:53:45;;;;;;;4.10;3.40;;;;;;;19.36;62.57;96313.53;10581451;28;20052;-48
2022/09/13 12:59:26;;;;;;;3.50;3.20;;;;;;;19.36;62.70;96316.25;10568793;28;20619;-51
2022/09/13 13:04:50;;;;;;;3.40;3.10;;;;;;;19.38;62.77;96299.72;10560935;28;20467;-47
2022/09/13 13:10:35;;;;;;;6.72;3.42;;;;;;;19.38;63.05;96302.41;10572841;28;20066;-50
2022/09/13 13:15:57;;;;;;;5.80;5.13;;;;;;;19.39;63.55;96304.78;10533064;28;20411;-51
2022/09/13 13:21:33;;;;;;;4.80;4.00;;;;;;;19.41;63.98;96309.84;10559623;28;20039;-46
2022/09/13 13:26:54;;;;;;;5.68;3.95;;;;;;;19.40;64.14;96303.63;10564270;28;20051;-48
2022/09/13 13:32:14;;;;;;;4.18;3.78;;;;;;;19.41;64.26;96289.03;10578422;28;20044;-47
2022/09/13 13:37:35;;;;;;;3.60;3.30;;;;;;;19.41;64.25;96294.44;10570064;28;20471;-51
2022/09/13 13:43:32;;;;;;;5.75;3.80;;;;;;;19.41;64.27;96289.03;10561305;28;20101;-45
2022/09/13 13:48:52;;;;;;;3.35;3.05;;;;;;;19.41;64.31;96285.53;10556333;28;20059;-47
2022/09/13 13:54:29;;;;;;;3.28;2.97;;;;;;;19.42;64.27;96284.41;10539826;28;20055;-48
2022/09/13 13:59:52;;;;;;;3.63;2.88;;;;;;;19.42;64.38;96279.00;10539297;28;20048;-48
2022/09/13 14:05:27;;;;;;;4.32;3.20;;;;;;;19.41;64.26;96272.03;10559157;28;20040;-46
2022/09/13 14:11:06;;;;;;;3.30;3.00;;;;;;;19.42;64.24;96282.47;10554815;28;20105;-45
2022/09/13 14:16:53;;;;;;;3.40;3.10;;;;;;;19.43;64.30;96275.97;10567236;28;20057;-46
2022/09/13 14:22:24;;;;;;;4.80;2.95;;;;;;;19.43;64.21;96275.97;10586855;28;20039;-47
2022/09/13 14:27:44;;;;;;;3.75;3.10;;;;;;;19.42;64.22;96263.56;10553385;28;20075;-47
2022/09/13 14:33:04;;;;;;;3.67;2.85;;;;;;;19.42;64.26;96263.56;10542680;28;20056;-45
2022/09/13 14:38:32;;;;;;;4.78;2.70;;;;;;;19.43;64.29;96267.88;10548057;28;20054;-51
2022/09/13 14:43:52;;;;;;;2.65;2.45;;;;;;;19.46;64.24;96250.19;10591162;28;20044;-50
2022/09/13 14:49:22;;;;;;;6.88;2.33;;;;;;;19.47;63.98;96238.28;10579320;28;20062;-47
2022/09/13 14:54:46;;;;;;;5.55;2.10;;;;;;;19.45;63.79;96241.31;10551774;28;20059;-45
2022/09/13 15:00:18;;;;;;;3.85;2.50;;;;;;;19.46;63.61;96240.16;10555805;28;20457;-46
2022/09/13 15:05:38;;;;;;;6.38;3.08;;;;;;;19.46;63.55;96242.09;10572710;28;20479;-48
2022/09/13 15:11:02;;;;;;;4.07;2.30;;;;;;;19.46;63.48;96242.09;10569861;28;20055;-49
2022/09/13 15:16:31;;;;;;;4.95;2.25;;;;;;;19.46;63.54;96248.28;10562450;28;20056;-50
2022/09/13 15:21:50;;;;;;;2.08;1.98;;;;;;;19.47;63.61;96238.28;10576755;28;20047;-48
2022/09/13 15:27:21;;;;;;;3.08;2.10;;;;;;;19.47;64.28;96236.34;10577588;28;20051;-49
2022/09/13 15:32:42;;;;;;;3.95;2.05;;;;;;;19.47;64.15;96228.25;10557904;28;20129;-47
2022/09/13 15:38:17;;;;;;;2.30;2.10;;;;;;;19.46;64.28;96226.66;10567870;28;20389;-47
2022/09/13 15:43:37;;;;;;;1.80;1.70;;;;;;;19.47;64.33;96236.34;10537743;28;20048;-48
2022/09/13 15:49:00;;;;;;;2.35;2.15;;;;;;;19.46;64.15;96231.28;10554027;28;20054;-46
2022/09/13 15:54:21;;;;;;;4.00;2.55;;;;;;;19.46;64.25;96226.66;10540632;28;20043;-47
2022/09/13 15:59:41;;;;;;;5.60;2.80;;;;;;;19.46;64.61;96220.47;10540175;28;20044;-46
2022/09/13 16:05:01;;;;;;;3.67;2.60;;;;;;;19.48;64.92;96224.44;10536573;28;20185;-49
2022/09/13 16:10:21;;;;;;;3.38;2.50;;;;;;;19.46;65.12;96221.25;10548729;28;20055;-46
2022/09/13 16:15:41;;;;;;;2.67;2.40;;;;;;;19.48;65.21;96216.34;10537526;28;20052;-49
2022/09/13 16:21:01;;;;;;;5.03;2.70;;;;;;;19.46;65.35;96215.06;10550865;28;20403;-46
2022/09/13 16:26:20;;;;;;;2.60;2.40;;;;;;;19.47;65.48;96213.97;10536904;28;20499;-46
2022/09/13 16:31:40;;;;;;;2.95;2.40;;;;;;;19.46;65.61;96198.88;10521945;28;20062;-46
2022/09/13 16:37:00;;;;;;;3.33;2.30;;;;;;;19.45;65.61;96203.47;10547571;28;20057;-46
2022/09/13 16:42:19;;;;;;;3.25;2.15;;;;;;;19.45;65.52;96208.88;10562823;28;20579;-46
2022/09/13 16:47:40;;;;;;;2.53;2.08;;;;;;;19.45;65.64;96202.72;10536412;28;20051;-49
2022/09/13 16:52:59;;;;;;;2.90;2.00;;;;;;;19.45;65.42;96202.72;10533520;28;20488;-49
2022/09/13 16:58:18;;;;;;;3.47;2.20;;;;;;;19.44;65.55;96207.31;10531180;28;20040;-47
2022/09/13 17:03:38;;;;;;;2.70;1.83;;;;;;;19.43;65.51;96205.75;10544045;28;20056;-47
2022/09/13 17:09:00;;;;;;;2.35;2.15;;;;;;;19.41;65.27;96205.28;10543641;28;20411;-45
2022/09/13 17:14:20;;;;;;;3.63;2.15;;;;;;;19.41;64.95;96194.47;10543502;28;20048;-46
2022/09/13 17:19:40;;;;;;;2.35;1.92;;;;;;;19.41;64.67;96201.81;10543293;28;20370;-49
2022/09/13 17:25:00;;;;;;;2.10;1.90;;;;;;;19.42;64.70;96203.38;10545883;28;20112;-47
2022/09/13 17:30:20;;;;;;;2.13;1.92;;;;;;;19.42;64.78;96209.56;10542255;28;20063;-44
2022/09/13 17:35:39;;;;;;;2.40;2.20;;;;;;;19.43;64.85;96202.25;10542643;28;20048;-48
2022/09/13 17:41:04;;;;;;;2.15;1.95;;;;;;;19.43;64.97;96205.75;10543569;28;20052;-46
2022/09/13 17:46:26;;;;;;;2.20;2.00;;;;;;;19.43;65.01;96213.84;10560416;28;20048;-45
2022/09/13 17:51:46;;;;;;;3.08;1.95;;;;;;;19.44;65.15;96203.81;10569269;28;20403;-51
2022/09/13 17:57:05;;;;;;;3.35;1.90;;;;;;;19.45;65.29;96218.91;10564531;28;20068;-48
2022/09/13 18:02:26;;;;;;;2.38;2.00;;;;;;;19.46;65.32;96215.06;10530420;28;20052;-48
2022/09/13 18:07:46;;;;;;;2.65;1.95;;;;;;;19.46;65.51;96210.44;10558494;28;20394;-49
2022/09/13 18:13:05;;;;;;;4.53;2.28;;;;;;;19.47;65.53;96209.34;10556358;28;20070;-48
2022/09/13 18:18:25;;;;;;;2.00;1.80;;;;;;;19.47;65.66;96213.97;10563598;28;20048;-46
2022/09/13 18:23:46;;;;;;;4.47;1.90;;;;;;;19.46;65.75;96215.84;10554361;28;20047;-48
2022/09/13 18:29:09;;;;;;;4.85;2.00;;;;;;;19.47;65.84;96217.44;10539970;28;20480;-47
2022/09/13 18:34:28;;;;;;;3.70;2.00;;;;;;;19.47;65.91;96212.03;10540478;28;20052;-50
2022/09/13 18:39:48;;;;;;;2.90;2.10;;;;;;;19.48;65.92;96213.63;10538624;28;20056;-47
2022/09/13 18:45:08;;;;;;;4.63;2.35;;;;;;;19.49;65.92;96211.72;10530460;28;20525;-47
2022/09/13 18:50:27;;;;;;;3.92;2.20;;;;;;;19.47;66.05;96203.94;10528003;28;20156;-49
2022/09/13 18:55:46;;;;;;;3.28;2.00;;;;;;;19.47;66.05;96206.63;10528472;28;20055;-50
2022/09/13 19:01:11;;;;;;;3.47;2.05;;;;;;;19.49;66.16;96209.78;10538389;28;20074;-51
2022/09/13 19:06:39;;;;;;;3.90;1.90;;;;;;;19.48;66.04;96202.81;10552177;28;20048;-49
2022/09/13 19:11:58;;;;;;;3.28;2.30;;;;;;;19.49;66.10;96204.38;10528695;28;20047;-48
2022/09/13 19:17:17;;;;;;;2.75;1.92;;;;;;;19.49;66.15;96214.41;10555687;28;20071;-47
2022/09/13 19:22:37;;;;;;;2.50;1.90;;;;;;;19.49;66.10;96207.09;10541427;28;20112;-49
2022/09/13 19:27:56;;;;;;;2.33;1.83;;;;;;;19.49;66.11;96206.31;10525105;28;20055;-50
2022/09/13 19:33:15;;;;;;;2.85;1.88;;;;;;;19.49;66.15;96206.31;10541267;28;20081;-49
2022/09/13 19:38:35;;;;;;;4.22;2.28;;;;;;;19.49;66.34;96209.00;10524404;28;20047;-52
2022/09/13 19:43:58;;;;;;;2.03;1.70;;;;;;;19.47;66.20;96198.53;10538032;28;20145;-52
2022/09/13 19:49:18;;;;;;;4.43;2.00;;;;;;;19.48;66.17;96202.81;10546778;28;20082;-51
2022/09/13 19:54:37;;;;;;;2.42;2.00;;;;;;;19.48;66.16;96197.41;10563591;28;20052;-54
2022/09/13 19:59:57;;;;;;;3.55;2.20;;;;;;;19.49;66.18;96198.97;10548161;28;20051;-49
2022/09/13 20:05:16;;;;;;;2.00;1.80;;;;;;;19.49;66.27;96201.69;10537619;28;20419;-51
2022/09/13 20:10:36;;;;;;;2.53;1.80;;;;;;;19.50;66.28;96203.28;10524336;28;20044;-51
2022/09/13 20:15:56;;;;;;;2.13;1.75;;;;;;;19.50;66.32;96192.47;10534347;28;20098;-50
2022/09/13 20:21:18;;;;;;;1.67;1.58;;;;;;;19.51;66.25;96193.25;10536059;28;20036;-51
2022/09/13 20:26:37;;;;;;;1.58;1.48;;;;;;;19.50;66.26;96195.16;10533309;28;20093;-51
2022/09/13 20:31:58;;;;;;;1.90;1.67;;;;;;;19.50;66.15;96188.97;10538598;28;20419;-51
2022/09/13 20:37:17;;;;;;;2.20;2.00;;;;;;;19.51;66.14;96195.94;10557229;28;20487;-51
2022/09/13 20:42:37;;;;;;;2.20;1.77;;;;;;;19.50;66.10;96188.97;10528468;28;20430;-51
2022/09/13 20:47:58;;;;;;;2.08;1.63;;;;;;;19.49;66.10;96182.78;10554147;28;20052;-49
2022/09/13 20:53:17;;;;;;;1.67;1.48;;;;;;;19.49;66.02;96174.66;10549289;28;20140;-51
2022/09/13 20:58:37;;;;;;;2.75;1.60;;;;;;;19.50;66.09;96176.25;10552384;28;20048;-49
2022/09/13 21:03:57;;;;;;;2.33;1.63;;;;;;;19.49;65.91;96171.19;10539997;28;20055;-48
2022/09/13 21:09:17;;;;;;;1.58;1.48;;;;;;;19.49;65.96;96171.97;10578670;28;20053;-50
2022/09/13 21:14:37;;;;;;;2.83;1.48;;;;;;;19.49;65.83;96166.56;10568322;28;20040;-48
2022/09/13 21:19:58;;;;;;;2.25;1.70;;;;;;;19.50;65.85;96176.25;10543908;28;20052;-49
2022/09/13 21:25:17;;;;;;;2.20;2.00;;;;;;;19.49;65.79;96163.88;10543446;28;20063;-51
2022/09/13 21:30:37;;;;;;;1.73;1.52;;;;;;;19.49;65.83;96163.88;10546204;28;20052;-51
2022/09/13 21:36:01;;;;;;;1.75;1.55;;;;;;;19.49;65.71;96161.16;10542458;28;20052;-50
2022/09/13 21:41:22;;;;;;;1.67;1.58;;;;;;;19.48;65.68;96170.41;10537486;28;20060;-48
2022/09/13 21:46:42;;;;;;;1.70;1.60;;;;;;;19.49;65.68;96179.28;10553764;28;20051;-50
2022/09/13 21:52:02;;;;;;;1.67;1.58;;;;;;;19.49;65.61;96169.25;10555933;28;20040;-49
2022/09/13 21:57:21;;;;;;;2.25;1.75;;;;;;;19.49;65.65;96171.97;10541697;28;20495;-49
2022/09/13 22:02:41;;;;;;;2.50;1.60;;;;;;;19.48;65.60;96170.41;10541600;28;20044;-50
2022/09/13 22:08:00;;;;;;;1.77;1.63;;;;;;;19.49;65.71;96174.66;10541619;28;20048;-50
2022/09/13 22:13:20;;;;;;;1.70;1.60;;;;;;;19.48;65.52;96178.50;10554897;28;20445;-48
2022/09/13 22:18:40;;;;;;;1.77;1.63;;;;;;;19.49;65.54;96188.16;10513508;28;20552;-49
2022/09/13 22:23:59;;;;;;;1.67;1.58;;;;;;;19.48;65.54;96186.63;10527823;28;20117;-51
2022/09/13 22:29:19;;;;;;;1.60;1.50;;;;;;;19.48;65.52;96189.31;10540758;28;20056;-50
2022/09/13 22:34:39;;;;;;;2.20;1.70;;;;;;;19.47;65.49;96187.72;10530084;28;20052;-50
2022/09/13 22:39:59;;;;;;;2.08;1.88;;;;;;;19.48;65.49;96194.72;10538027;28;20056;-49
2022/09/13 22:45:18;;;;;;;1.75;1.48;;;;;;;19.47;65.51;96184.25;10539807;28;20052;-49
2022/09/13 22:50:37;;;;;;;2.47;1.75;;;;;;;19.47;65.35;96174.22;10539405;28;20067;-49
2022/09/13 22:56:05;;;;;;;1.70;1.60;;;;;;;19.49;65.36;96176.59;10540001;28;20044;-47
2022/09/13 23:01:27;;;;;;;1.90;1.60;;;;;;;19.47;65.44;96171.53;10539676;28;20476;-49
2022/09/13 23:06:47;;;;;;;1.90;1.60;;;;;;;19.47;65.27;96171.53;10539511;28;20129;-51
2022/09/13 23:12:07;;;;;;;2.53;1.65;;;;;;;19.46;65.32;96169.94;10552645;28;20090;-49
2022/09/13 23:17:26;;;;;;;1.83;1.73;;;;;;;19.46;65.26;96182.66;10538096;28;20044;-52
2022/09/13 23:22:45;;;;;;;2.83;1.75;;;;;;;19.47;65.28;96184.25;10552230;28;20036;-50
2022/09/13 23:28:05;;;;;;;3.30;1.75;;;;;;;19.46;65.25;96185.34;10530927;28;20441;-51
2022/09/13 23:33:24;;;;;;;1.63;1.52;;;;;;;19.46;65.29;96182.66;10540080;28;20567;-52
2022/09/13 23:38:49;;;;;;;1.50;1.40;;;;;;;19.45;65.20;96179.19;10537915;28;20048;-50
2022/09/13 23:44:08;;;;;;;1.75;1.45;;;;;;;19.46;65.30;96194.25;10547334;28;20113;-51
2022/09/13 23:49:27;;;;;;;1.73;1.50;;;;;;;19.46;65.18;96164.53;10540889;28;20043;-49
2022/09/13 23:54:47;;;;;;;1.60;1.50;;;;;;;19.46;65.17;96166.44;10543494;28;20089;-51
